createdAt,value
2018-05-12T00:01:54.567Z,75.62
2018-05-12T00:04:25.528Z,75.74
2018-05-12T00:06:56.645Z,75.44
2018-05-12T00:09:27.534Z,75.35
2018-05-12T00:11:58.615Z,75.31
2018-05-12T00:14:29.596Z,75.43
2018-05-12T00:17:00.462Z,75.63
2018-05-12T00:19:31.333Z,76.02
2018-05-12T00:22:02.873Z,76.34
2018-05-12T00:24:33.569Z,76.31
2018-05-12T00:27:04.781Z,76.57
2018-05-12T00:29:35.541Z,76.50
2018-05-12T00:32:06.351Z,76.41
2018-05-12T00:34:37.022Z,76.63
2018-05-12T00:37:07.774Z,76.68
2018-05-12T00:39:38.503Z,76.94
2018-05-12T00:42:09.647Z,77.00
2018-05-12T00:44:40.487Z,76.70
2018-05-12T00:47:11.548Z,76.70
2018-05-12T00:49:42.146Z,76.75
2018-05-12T00:52:12.986Z,76.75
2018-05-12T00:54:43.650Z,76.65
2018-05-12T00:57:14.580Z,76.73
2018-05-12T00:59:45.090Z,76.70
2018-05-12T01:02:15.876Z,76.60
2018-05-12T01:04:46.554Z,76.70
2018-05-12T01:07:17.682Z,76.70
2018-05-12T01:09:48.578Z,76.92
2018-05-12T01:12:19.686Z,76.78
2018-05-12T01:14:50.151Z,76.61
2018-05-12T01:17:20.995Z,76.59
2018-05-12T01:19:51.685Z,76.68
2018-05-12T01:22:22.673Z,76.76
2018-05-12T01:24:53.565Z,76.89
2018-05-12T01:27:24.178Z,76.95
2018-05-12T01:29:54.088Z,77.05
2018-05-12T01:32:24.965Z,77.21
2018-05-12T01:34:55.574Z,77.18
2018-05-12T01:37:26.558Z,77.46
2018-05-12T01:39:57.543Z,77.47
2018-05-12T01:42:28.210Z,77.45
2018-05-12T01:44:58.914Z,77.44
2018-05-12T01:47:29.682Z,77.81
2018-05-12T01:50:00.647Z,77.95
2018-05-12T01:52:31.582Z,78.24
2018-05-12T01:55:02.230Z,77.97
2018-05-12T01:57:33.011Z,77.99
2018-05-12T02:00:03.725Z,77.93
2018-05-12T02:02:34.652Z,78.06
2018-05-12T02:05:05.655Z,78.24
2018-05-12T02:07:36.189Z,78.17
2018-05-12T02:10:06.174Z,78.49
2018-05-12T02:12:36.862Z,78.51
2018-05-12T02:15:07.550Z,78.35
2018-05-12T02:17:38.651Z,78.32
2018-05-12T02:20:09.547Z,78.30
2018-05-12T02:22:40.219Z,78.36
2018-05-12T02:25:10.862Z,78.40
2018-05-12T02:27:41.670Z,78.56
2018-05-12T02:30:12.576Z,78.47
2018-05-12T02:32:43.604Z,78.54
2018-05-12T02:35:13.834Z,78.78
2018-05-12T02:37:44.720Z,78.74
2018-05-12T02:40:15.563Z,78.75
2018-05-12T02:42:46.202Z,79.02
2018-05-12T02:45:16.914Z,78.91
2018-05-12T02:47:46.938Z,78.79
2018-05-12T02:50:17.674Z,78.85
2018-05-12T02:52:48.579Z,78.97
2018-05-12T02:55:19.546Z,78.98
2018-05-12T02:57:50.650Z,79.20
2018-05-12T03:00:21.555Z,79.42
2018-05-12T03:02:52.178Z,80.01
2018-05-12T03:05:22.994Z,80.89
2018-05-12T03:07:53.051Z,81.19
2018-05-12T03:10:23.766Z,80.85
2018-05-12T03:12:54.662Z,81.84
2018-05-12T03:15:25.633Z,81.19
2018-05-12T03:17:56.678Z,80.99
2018-05-12T03:20:27.537Z,80.69
2018-05-12T03:22:58.665Z,80.56
2018-05-12T03:25:29.514Z,80.29
2018-05-12T03:28:00.587Z,80.15
2018-05-12T03:30:31.489Z,80.03
2018-05-12T03:33:02.634Z,79.95
2018-05-12T03:35:33.598Z,79.95
2018-05-12T03:38:04.590Z,79.89
2018-05-12T03:40:35.571Z,79.84
2018-05-12T03:43:06.570Z,79.75
2018-05-12T03:45:37.594Z,79.97
2018-05-12T03:48:08.566Z,79.91
2018-05-12T03:50:39.533Z,79.85
2018-05-12T03:53:10.643Z,80.09
2018-05-12T03:55:41.102Z,80.06
2018-05-12T03:58:11.894Z,79.75
2018-05-12T04:00:42.654Z,79.48
2018-05-12T04:03:13.218Z,79.48
2018-05-12T04:05:55.124Z,79.31
2018-05-12T04:08:34.964Z,79.25
2018-05-12T04:11:15.219Z,79.14
2018-05-12T04:13:44.178Z,79.12
2018-05-12T04:16:13.354Z,79.16
2018-05-12T04:18:42.354Z,79.17
2018-05-12T04:21:11.290Z,79.29
2018-05-12T04:23:40.230Z,79.20
2018-05-12T04:26:09.293Z,79.24
2018-05-12T04:28:38.233Z,79.28
2018-05-12T04:31:07.178Z,79.15
2018-05-12T04:33:36.742Z,79.23
2018-05-12T04:36:05.694Z,79.50
2018-05-12T04:38:34.634Z,79.48
2018-05-12T04:41:03.670Z,79.51
2018-05-12T04:43:32.611Z,79.49
2018-05-12T04:46:01.571Z,79.43
2018-05-12T04:48:30.985Z,79.38
2018-05-12T04:50:59.950Z,80.22
2018-05-12T04:53:30.785Z,81.51
2018-05-12T04:56:01.658Z,80.93
2018-05-12T04:58:32.573Z,81.86
2018-05-12T05:01:03.546Z,81.15
2018-05-12T05:03:34.675Z,82.09
2018-05-12T05:06:05.610Z,81.54
2018-05-12T05:08:36.653Z,81.91
2018-05-12T05:11:07.562Z,81.93
2018-05-12T05:13:38.666Z,81.78
2018-05-12T05:16:09.538Z,81.65
2018-05-12T05:18:40.198Z,81.24
2018-05-12T05:21:11.049Z,81.06
2018-05-12T05:23:41.955Z,81.23
2018-05-12T05:26:12.644Z,81.66
2018-05-12T05:28:43.569Z,82.36
2018-05-12T05:31:14.278Z,81.83
2018-05-12T05:33:45.017Z,81.32
2018-05-12T05:36:15.760Z,81.96
2018-05-12T05:38:46.679Z,81.37
2018-05-12T05:41:17.605Z,81.03
2018-05-12T05:43:48.579Z,80.49
2018-05-12T05:46:19.487Z,80.52
2018-05-12T05:48:50.602Z,80.27
2018-05-12T05:51:21.606Z,80.14
2018-05-12T05:53:52.704Z,80.30
2018-05-12T05:56:23.110Z,80.03
2018-05-12T05:58:53.893Z,80.86
2018-05-12T06:01:25.826Z,80.29
2018-05-12T06:03:56.263Z,80.16
2018-05-12T06:06:26.762Z,80.56
2018-05-12T06:08:57.220Z,80.02
2018-05-12T06:11:27.975Z,79.90
2018-05-12T06:13:58.953Z,79.57
2018-05-12T06:16:29.712Z,79.29
2018-05-12T06:19:01.555Z,79.01
2018-05-12T06:21:31.163Z,79.04
2018-05-12T06:24:01.974Z,80.00
2018-05-12T06:26:32.741Z,80.02
2018-05-12T06:29:03.719Z,80.40
2018-05-12T06:31:36.984Z,79.67
2018-05-12T06:34:06.072Z,79.87
2018-05-12T06:36:36.830Z,79.85
2018-05-12T06:39:07.635Z,79.21
2018-05-12T06:41:39.019Z,78.79
2018-05-12T06:44:09.839Z,79.30
2018-05-12T06:46:40.640Z,78.65
2018-05-12T06:49:11.771Z,78.33
2018-05-12T06:51:42.562Z,78.18
2018-05-12T06:54:13.653Z,77.84
2018-05-12T06:56:44.610Z,77.60
2018-05-12T06:59:16.246Z,77.91
2018-05-12T07:01:48.720Z,77.88
2018-05-12T07:04:17.878Z,77.81
2018-05-12T07:06:47.927Z,77.95
2018-05-12T07:09:18.762Z,77.44
2018-05-12T07:11:53.330Z,77.46
2018-05-12T07:14:22.431Z,76.80
2018-05-12T07:16:51.399Z,76.68
2018-05-12T07:19:22.322Z,76.08
2018-05-12T07:21:52.106Z,76.57
2018-05-12T07:24:22.893Z,76.64
2018-05-12T07:26:54.163Z,76.59
2018-05-12T07:29:24.974Z,76.99
2018-05-12T07:31:55.733Z,76.27
2018-05-12T07:34:26.281Z,75.79
2018-05-12T07:36:58.079Z,75.22
2018-05-12T07:39:34.397Z,74.78
2018-05-12T07:42:08.277Z,75.56
2018-05-12T07:44:37.305Z,74.35
2018-05-12T07:47:06.302Z,74.46
2018-05-12T07:49:35.251Z,74.21
2018-05-12T07:52:05.809Z,73.50
2018-05-12T07:54:34.853Z,73.99
2018-05-12T07:57:03.879Z,73.16
2018-05-12T07:59:34.087Z,72.58
2018-05-12T08:02:04.821Z,73.00
2018-05-12T08:04:35.623Z,72.91
2018-05-12T08:07:06.646Z,72.18
2018-05-12T08:09:37.619Z,72.17
2018-05-12T08:12:09.182Z,71.81
2018-05-12T08:14:39.943Z,71.68
2018-05-12T08:17:10.648Z,71.98
2018-05-12T08:19:41.680Z,70.69
2018-05-12T08:22:12.545Z,70.43
2018-05-12T08:24:43.657Z,69.31
2018-05-12T08:27:14.554Z,69.40
2018-05-12T08:29:45.748Z,69.49
2018-05-12T08:32:16.591Z,68.86
2018-05-12T08:34:47.573Z,68.67
2018-05-12T08:37:18.608Z,68.43
2018-05-12T08:39:49.651Z,67.00
2018-05-12T08:42:20.602Z,66.04
2018-05-12T08:44:51.588Z,65.81
2018-05-12T08:47:22.599Z,65.66
2018-05-12T08:49:53.611Z,65.46
2018-05-12T08:52:24.543Z,65.70
2018-05-12T08:54:55.668Z,65.92
2018-05-12T08:57:26.508Z,65.17
2018-05-12T08:59:57.564Z,64.71
2018-05-12T09:02:28.551Z,63.69
2018-05-12T09:04:59.646Z,63.53
2018-05-12T09:07:30.156Z,62.43
2018-05-12T09:10:00.898Z,62.25
2018-05-12T09:12:31.570Z,61.62
2018-05-12T09:15:02.579Z,60.88
2018-05-12T09:17:33.670Z,61.15
2018-05-12T09:20:04.277Z,60.96
2018-05-12T09:22:35.827Z,59.59
2018-05-12T09:25:06.655Z,59.82
2018-05-12T09:27:37.192Z,59.46
2018-05-12T09:30:08.027Z,57.03
2018-05-12T09:32:38.869Z,56.48
2018-05-12T09:35:09.834Z,57.12
2018-05-12T09:37:40.535Z,57.38
2018-05-12T09:40:12.430Z,57.11
2018-05-12T09:42:43.214Z,56.16
2018-05-12T09:45:13.949Z,53.32
2018-05-12T09:47:44.714Z,54.15
2018-05-12T09:50:15.567Z,54.97
2018-05-12T09:52:46.611Z,53.52
2018-05-12T09:55:16.642Z,53.52
2018-05-12T09:57:47.274Z,54.36
2018-05-12T10:00:18.006Z,52.65
2018-05-12T10:02:49.120Z,54.01
2018-05-12T10:05:20.205Z,53.16
2018-05-12T10:07:51.107Z,54.64
2018-05-12T10:10:22.214Z,54.32
2018-05-12T10:12:53.268Z,53.05
2018-05-12T10:15:24.296Z,53.11
2018-05-12T10:18:01.234Z,53.86
2018-05-12T10:20:30.345Z,54.65
2018-05-12T10:22:59.895Z,54.49
2018-05-12T10:25:28.810Z,55.09
2018-05-12T10:27:59.794Z,55.15
2018-05-12T10:30:30.604Z,55.72
2018-05-12T10:33:01.611Z,56.05
2018-05-12T10:35:32.352Z,55.48
2018-05-12T10:38:04.007Z,55.55
2018-05-12T10:40:34.031Z,55.22
2018-05-12T10:43:04.868Z,55.09
2018-05-12T10:45:35.668Z,53.93
2018-05-12T10:48:06.823Z,54.03
2018-05-12T10:50:37.613Z,54.46
2018-05-12T10:53:08.747Z,54.44
2018-05-12T10:55:39.634Z,54.18
2018-05-12T10:58:10.769Z,52.80
2018-05-12T11:00:41.613Z,53.01
2018-05-12T11:03:12.704Z,53.10
2018-05-12T11:05:43.587Z,52.69
2018-05-12T11:08:14.274Z,51.73
2018-05-12T11:10:44.821Z,52.02
2018-05-12T11:13:15.719Z,52.02
2018-05-12T11:15:46.234Z,51.59
2018-05-12T11:18:16.998Z,53.03
2018-05-12T11:20:47.019Z,52.74
2018-05-12T11:23:17.880Z,52.35
2018-05-12T11:25:48.948Z,52.34
2018-05-12T11:28:19.767Z,51.99
2018-05-12T11:30:50.838Z,49.91
2018-05-12T11:33:22.582Z,49.90
2018-05-12T11:35:53.266Z,50.16
2018-05-12T11:38:27.529Z,49.37
2018-05-12T11:40:57.086Z,48.48
2018-05-12T11:43:26.055Z,47.59
2018-05-12T11:45:56.090Z,46.94
2018-05-12T11:48:26.948Z,46.09
2018-05-12T11:50:57.688Z,46.58
2018-05-12T11:53:28.659Z,46.28
2018-05-12T11:55:59.205Z,45.54
2018-05-12T11:58:30.030Z,44.69
2018-05-12T12:01:00.949Z,44.97
2018-05-12T12:03:31.819Z,45.88
2018-05-12T12:06:02.598Z,44.21
2018-05-12T12:08:33.155Z,45.23
2018-05-12T12:11:03.932Z,45.07
2018-05-12T12:13:34.724Z,44.91
2018-05-12T12:16:05.725Z,43.48
2018-05-12T12:18:36.654Z,44.03
2018-05-12T12:21:07.725Z,44.33
2018-05-12T12:23:38.755Z,44.71
2018-05-12T12:26:09.793Z,44.66
2018-05-12T12:28:40.568Z,44.78
2018-05-12T12:31:12.381Z,44.28
2018-05-12T12:33:43.151Z,43.29
2018-05-12T12:36:13.229Z,43.45
2018-05-12T12:38:44.019Z,42.30
2018-05-12T12:41:14.706Z,42.40
2018-05-12T12:43:45.579Z,40.97
2018-05-12T12:46:16.607Z,41.72
2018-05-12T12:48:47.615Z,41.01
2018-05-12T12:51:18.678Z,40.51
2018-05-12T12:53:49.575Z,40.00
2018-05-12T12:56:20.188Z,39.33
2018-05-12T12:58:50.947Z,39.33
2018-05-12T13:01:21.031Z,39.17
2018-05-12T13:03:51.941Z,39.25
2018-05-12T13:06:22.668Z,38.36
2018-05-12T13:08:53.595Z,37.72
2018-05-12T13:11:24.870Z,39.01
2018-05-12T13:13:55.956Z,38.14
2018-05-12T13:16:26.146Z,38.84
2018-05-12T13:18:56.961Z,38.48
2018-05-12T13:21:27.694Z,36.91
2018-05-12T13:23:58.609Z,36.82
2018-05-12T13:26:29.609Z,35.00
2018-05-12T13:29:00.617Z,36.75
2018-05-12T13:31:31.319Z,36.29
2018-05-12T13:34:02.114Z,35.94
2018-05-12T13:36:32.830Z,37.19
2018-05-12T13:39:03.446Z,36.13
2018-05-12T13:41:34.562Z,35.66
2018-05-12T13:44:05.541Z,35.66
2018-05-12T13:46:36.568Z,36.02
2018-05-12T13:49:07.618Z,36.75
2018-05-12T13:51:38.502Z,36.28
2018-05-12T13:54:09.630Z,36.71
2018-05-12T13:56:40.531Z,37.38
2018-05-12T13:59:11.673Z,36.97
2018-05-12T14:01:42.144Z,38.63
2018-05-12T14:04:12.965Z,39.29
2018-05-12T14:06:43.694Z,39.63
2018-05-12T14:09:14.580Z,40.61
2018-05-12T14:11:45.524Z,41.04
2018-05-12T14:14:16.651Z,41.37
2018-05-12T14:16:47.535Z,41.92
2018-05-12T14:19:18.627Z,42.63
2018-05-12T14:21:49.530Z,43.60
2018-05-12T14:24:20.646Z,45.36
2018-05-12T14:26:51.609Z,46.43
2018-05-12T14:29:22.727Z,46.24
2018-05-12T14:31:53.447Z,46.35
2018-05-12T14:34:24.153Z,46.33
2018-05-12T14:36:54.880Z,46.52
2018-05-12T14:39:25.684Z,47.00
2018-05-12T14:41:57.078Z,47.48
2018-05-12T14:44:27.863Z,47.16
2018-05-12T14:46:58.621Z,46.94
2018-05-12T14:49:29.702Z,46.94
2018-05-12T14:52:01.340Z,47.04
2018-05-12T14:54:31.585Z,47.13
2018-05-12T14:57:02.558Z,47.42
2018-05-12T14:59:33.623Z,47.74
2018-05-12T15:02:04.634Z,47.98
2018-05-12T15:04:35.677Z,48.23
2018-05-12T15:07:06.544Z,48.83
2018-05-12T15:09:37.542Z,49.04
2018-05-12T15:12:08.545Z,49.19
2018-05-12T15:14:39.554Z,49.03
2018-05-12T15:17:10.795Z,49.11
2018-05-12T15:19:41.654Z,49.47
2018-05-12T15:22:12.521Z,49.47
2018-05-12T15:24:43.611Z,49.76
2018-05-12T15:27:14.468Z,50.13
2018-05-12T15:29:45.244Z,50.28
2018-05-12T15:32:15.938Z,50.32
2018-05-12T15:34:46.799Z,51.39
2018-05-12T15:37:17.569Z,51.52
2018-05-12T15:39:48.519Z,51.98
2018-05-12T15:42:19.578Z,52.54
2018-05-12T15:44:50.642Z,52.59
2018-05-12T15:47:21.559Z,52.70
2018-05-12T15:49:52.593Z,52.63
2018-05-12T15:52:23.543Z,52.86
2018-05-12T15:54:54.634Z,54.57
2018-05-12T15:57:25.711Z,54.49
2018-05-12T15:59:56.598Z,54.44
2018-05-12T16:02:27.483Z,53.85
2018-05-12T16:04:58.687Z,53.82
2018-05-12T16:07:29.600Z,54.29
2018-05-12T16:10:00.291Z,55.18
2018-05-12T16:12:30.886Z,55.06
2018-05-12T16:15:01.716Z,54.70
2018-05-12T16:17:32.594Z,54.55
2018-05-12T16:20:03.645Z,54.65
2018-05-12T16:22:34.180Z,54.58
2018-05-12T16:25:04.998Z,54.61
2018-05-12T16:27:35.729Z,55.17
2018-05-12T16:30:06.950Z,55.18
2018-05-12T16:32:36.953Z,55.05
2018-05-12T16:35:07.847Z,55.31
2018-05-12T16:37:37.958Z,56.03
2018-05-12T16:40:08.773Z,55.75
2018-05-12T16:42:39.615Z,55.77
2018-05-12T16:45:10.285Z,56.43
2018-05-12T16:47:41.918Z,56.64
2018-05-12T16:50:12.104Z,57.03
2018-05-12T16:52:42.867Z,57.66
2018-05-12T16:55:13.713Z,58.13
2018-05-12T16:57:44.621Z,58.69
2018-05-12T17:00:15.749Z,58.51
2018-05-12T17:02:46.535Z,59.11
2018-05-12T17:05:17.655Z,58.92
2018-05-12T17:07:48.666Z,59.06
2018-05-12T17:10:19.627Z,58.71
2018-05-12T17:12:50.607Z,58.42
2018-05-12T17:15:21.707Z,58.05
2018-05-12T17:17:52.614Z,57.54
2018-05-12T17:20:23.594Z,56.97
2018-05-12T17:22:54.544Z,56.56
2018-05-12T17:25:25.662Z,56.30
2018-05-12T17:27:56.668Z,56.00
2018-05-12T17:30:27.712Z,55.96
2018-05-12T17:32:58.547Z,55.98
2018-05-12T17:35:29.682Z,55.64
2018-05-12T17:38:00.558Z,55.51
2018-05-12T17:40:31.646Z,55.29
2018-05-12T17:43:02.631Z,55.52
2018-05-12T17:45:33.731Z,55.87
2018-05-12T17:48:04.405Z,55.57
2018-05-12T17:50:35.583Z,55.11
2018-05-12T17:53:06.647Z,54.79
2018-05-12T17:55:37.633Z,54.87
2018-05-12T17:58:07.951Z,55.12
2018-05-12T18:00:38.805Z,55.30
2018-05-12T18:03:10.613Z,55.61
2018-05-12T18:05:41.267Z,55.92
2018-05-12T18:08:11.958Z,56.23
2018-05-12T18:10:42.751Z,56.21
2018-05-12T18:13:13.581Z,56.44
2018-05-12T18:15:44.592Z,56.53
2018-05-12T18:18:15.582Z,56.42
2018-05-12T18:20:46.629Z,56.48
2018-05-12T18:23:17.637Z,56.41
2018-05-12T18:25:48.861Z,56.36
2018-05-12T18:28:19.698Z,56.44
2018-05-12T18:30:50.562Z,56.63
2018-05-12T18:33:21.796Z,56.84
2018-05-12T18:35:52.764Z,57.26
2018-05-12T18:38:23.372Z,57.30
2018-05-12T18:40:54.105Z,57.19
2018-05-12T18:43:24.919Z,56.94
2018-05-12T18:45:55.667Z,56.82
2018-05-12T18:48:26.703Z,56.66
2018-05-12T18:50:57.521Z,56.65
2018-05-12T18:53:28.581Z,56.56
2018-05-12T18:55:59.537Z,56.47
2018-05-12T18:58:31.383Z,56.54
2018-05-12T19:01:02.159Z,56.66
2018-05-12T19:03:33.058Z,57.04
2018-05-12T19:06:03.797Z,57.43
2018-05-12T19:08:34.658Z,57.78
2018-05-12T19:11:05.686Z,58.19
2018-05-12T19:13:36.794Z,58.64
2018-05-12T19:16:07.786Z,58.84
2018-05-12T19:18:38.736Z,59.08
2018-05-12T19:21:09.227Z,59.53
2018-05-12T19:23:43.050Z,59.84
2018-05-12T19:26:13.855Z,60.03
2018-05-12T19:28:42.908Z,60.16
2018-05-12T19:31:16.818Z,60.43
2018-05-12T19:33:45.845Z,60.51
2018-05-12T19:36:15.069Z,60.60
2018-05-12T19:38:55.248Z,60.75
2018-05-12T19:41:24.467Z,60.74
2018-05-12T19:43:53.584Z,60.58
2018-05-12T19:46:22.786Z,60.33
2018-05-12T19:48:51.824Z,60.17
2018-05-12T19:51:20.854Z,60.11
2018-05-12T19:53:51.639Z,60.05
2018-05-12T19:56:22.228Z,59.98
2018-05-12T19:58:53.096Z,59.88
2018-05-12T20:01:23.992Z,59.92
2018-05-12T20:03:54.835Z,59.93
2018-05-12T20:06:25.060Z,59.97
2018-05-12T20:08:55.836Z,60.06
2018-05-12T20:11:26.643Z,60.12
2018-05-12T20:13:57.147Z,60.11
2018-05-12T20:16:27.987Z,60.21
2018-05-12T20:18:58.015Z,60.26
2018-05-12T20:21:28.874Z,60.40
2018-05-12T20:23:59.639Z,60.52
2018-05-12T20:26:30.881Z,60.59
2018-05-12T20:29:01.806Z,60.92
2018-05-12T20:31:33.512Z,61.33
2018-05-12T20:34:04.271Z,61.50
2018-05-12T20:36:35.053Z,61.43
2018-05-12T20:39:04.657Z,61.53
2018-05-12T20:41:35.954Z,61.75
2018-05-12T20:44:08.316Z,61.63
2018-05-12T20:46:39.212Z,61.83
2018-05-12T20:49:09.952Z,61.96
2018-05-12T20:51:40.232Z,61.98
2018-05-12T20:54:11.238Z,62.10
2018-05-12T20:56:42.339Z,62.32
2018-05-12T20:59:13.022Z,62.38
2018-05-12T21:01:45.347Z,62.45
2018-05-12T21:04:15.434Z,62.54
2018-05-12T21:06:46.836Z,62.64
2018-05-12T21:09:16.877Z,62.68
2018-05-12T21:11:47.875Z,62.70
2018-05-12T21:14:18.732Z,62.63
2018-05-12T21:16:49.815Z,62.78
2018-05-12T21:19:20.555Z,63.00
2018-05-12T21:21:51.625Z,63.12
2018-05-12T21:24:23.798Z,63.23
2018-05-12T21:26:59.467Z,63.41
2018-05-12T21:29:29.021Z,63.41
2018-05-12T21:31:58.028Z,63.20
2018-05-12T21:34:27.062Z,62.95
2018-05-12T21:36:57.026Z,62.64
2018-05-12T21:39:28.359Z,62.65
2018-05-12T21:41:59.002Z,62.34
2018-05-12T21:44:29.200Z,62.14
2018-05-12T21:46:59.897Z,62.01
2018-05-12T21:49:30.795Z,61.87
2018-05-12T21:52:01.554Z,61.79
2018-05-12T21:54:33.129Z,61.82
2018-05-12T21:57:04.007Z,61.96
2018-05-12T21:59:38.609Z,61.84
2018-05-12T22:02:08.001Z,61.82
2018-05-12T22:04:37.579Z,61.74
2018-05-12T22:07:08.308Z,61.61
2018-05-12T22:13:09.371Z,61.39
2018-05-12T22:15:38.425Z,61.25
2018-05-12T22:18:07.406Z,61.02
2018-05-12T22:20:36.391Z,60.89
2018-05-12T22:23:05.476Z,60.30
2018-05-12T22:25:34.460Z,60.67
2018-05-12T22:28:03.425Z,60.58
2018-05-12T22:30:32.505Z,60.47
2018-05-12T22:33:01.720Z,60.28
2018-05-12T22:35:31.008Z,59.85
2018-05-12T22:38:00.251Z,59.93
2018-05-12T22:40:35.978Z,60.24
2018-05-12T22:43:05.251Z,60.30
2018-05-12T22:45:34.394Z,59.77
2018-05-12T22:48:03.322Z,59.80
2018-05-12T22:50:33.056Z,58.43
2018-05-12T22:53:02.098Z,59.29
2018-05-12T22:55:31.183Z,58.95
2018-05-12T22:58:00.591Z,58.86
2018-05-12T23:00:32.585Z,58.64
2018-05-12T23:03:01.634Z,58.16
2018-05-12T23:05:30.588Z,58.20
2018-05-12T23:07:59.568Z,58.07
2018-05-12T23:10:28.582Z,57.72
2018-05-12T23:12:57.842Z,57.53
2018-05-12T23:15:27.209Z,57.48
2018-05-12T23:17:56.222Z,57.47
2018-05-12T23:20:25.241Z,57.54
2018-05-12T23:22:54.215Z,57.16
2018-05-12T23:25:23.307Z,55.36
2018-05-12T23:27:52.383Z,55.40
2018-05-12T23:30:21.339Z,56.47
2018-05-12T23:32:50.771Z,56.10
2018-05-12T23:35:19.750Z,56.38
2018-05-12T23:37:48.711Z,56.11
2018-05-12T23:40:17.751Z,54.17
2018-05-12T23:42:46.763Z,52.85
2018-05-12T23:45:15.727Z,52.61
2018-05-12T23:47:45.080Z,52.78
2018-05-12T23:50:14.124Z,51.88
2018-05-12T23:52:44.823Z,53.62
2018-05-12T23:55:15.765Z,52.77
2018-05-12T23:57:46.494Z,52.55
